Aeroporto :







RITROVATECI SU...

 
LOGIN :

Iscrizione | Disclaimer

   EN    FR    IT 

 









Sommario :    VFR   VFR Marginale   IFR   IFR Intensivo   IFR Molto Intensivo
Visibilità : 
Base nubi : 
>= 8 km
>= 3000ft
5 / 8 km
1000 / 3000 ft
1500m / 5 km
500 / 1000 ft
800 / 1500m
200 / 500 ft
< 800m
< 200 ft
Simboli :   Temporali  Nebbia  Neve Forte  Precipitazioni Forti  Vento > 20 kt






- Altitudine del aeroporto : 41 ft
- Codice IATA : GND


TGPY - Point Salines

ULTIMO METAR :
  • 140000Z 05005KT 9999 FEW018 28/24 Q1011 NOSIG

METARs OBSOLETI :
  • 132300Z 06006KT 9999 FEW018 29/25 Q1010 NOSIG
  • 132200Z 07014KT 9999 FEW018 30/25 Q1009 NOSIG

TAF COR TAF TGPY
Valido dal 14 a 00 ore il 15 a 00 ore UTC


132200Z 1400/1424 07010KT 9999 SCT018
BECMG 1412/1414 09017KT
BECMG 1418/1420 FEW012CB SCT018
FIR TTZP / America del Nord



MetMap, La meteo Aeronautica in un colpo d'occhio ! - Copyright ORBIFLY Dicembre 2007 - Disclaimer

ORBIFLY MET'MAP TEAM :

Programmazione e sviluppo : Alexandra Zaïnal
Concezione : Baudouin d'Aumeries
Aiuto per la programmazione : Marc-Olivier Méhu
Supporto tecnico e logistico : Manuel Goepfert
Aiuto per la traduzione : Arnaldo La Scala

Contatto : metmap@orbifly.com




FONTI E CREDITI :

   NOAA